createdAt,value
2018-03-20T00:00:15.666Z,-6.00
2018-03-20T00:02:42.112Z,-6.00
2018-03-20T00:05:09.267Z,-6.10
2018-03-20T00:07:36.437Z,-6.10
2018-03-20T00:10:03.733Z,-6.10
2018-03-20T00:12:30.880Z,-6.10
2018-03-20T00:14:57.452Z,-6.10
2018-03-20T00:17:24.591Z,-6.20
2018-03-20T00:19:50.978Z,-6.20
2018-03-20T00:22:18.131Z,-6.20
2018-03-20T00:24:44.566Z,-6.20
2018-03-20T00:27:11.735Z,-6.30
2018-03-20T00:29:38.184Z,-6.30
2018-03-20T00:32:04.610Z,-6.20
2018-03-20T00:34:31.014Z,-6.30
2018-03-20T00:36:59.057Z,-6.30
2018-03-20T00:39:25.477Z,-6.30
2018-03-20T00:41:51.897Z,-6.30
2018-03-20T00:44:18.415Z,-6.40
2018-03-20T00:46:45.687Z,-6.40
2018-03-20T00:49:12.840Z,-6.40
2018-03-20T00:51:39.316Z,-6.40
2018-03-20T00:54:06.482Z,-6.50
2018-03-20T00:56:33.670Z,-6.50
2018-03-20T00:59:00.091Z,-6.50
2018-03-20T01:01:26.523Z,-6.50
2018-03-20T01:03:52.923Z,-6.50
2018-03-20T01:06:20.098Z,-6.50
2018-03-20T01:08:47.269Z,-6.60
2018-03-20T01:11:14.489Z,-6.60
2018-03-20T01:13:40.887Z,-6.60
2018-03-20T01:16:08.036Z,-6.60
2018-03-20T01:18:36.944Z,-6.70
2018-03-20T01:21:04.118Z,-6.60
2018-03-20T01:23:30.547Z,-6.70
2018-03-20T01:25:56.964Z,-6.60
2018-03-20T01:28:24.239Z,-6.70
2018-03-20T01:30:51.414Z,-6.70
2018-03-20T01:33:17.855Z,-6.70
2018-03-20T01:35:45.024Z,-6.80
2018-03-20T01:38:12.146Z,-6.80
2018-03-20T01:40:38.580Z,-6.80
2018-03-20T01:43:05.004Z,-6.80
2018-03-20T01:45:31.580Z,-6.80
2018-03-20T01:47:58.857Z,-6.90
2018-03-20T01:50:26.019Z,-7.00
2018-03-20T01:53:05.371Z,-7.00
2018-03-20T01:55:32.508Z,-7.00
2018-03-20T01:57:58.998Z,-7.10
2018-03-20T02:00:26.182Z,-7.10
2018-03-20T02:02:52.556Z,-7.20
2018-03-20T02:05:18.966Z,-7.20
2018-03-20T02:07:46.255Z,-7.20
2018-03-20T02:10:13.448Z,-7.30
2018-03-20T02:12:39.877Z,-7.30
2018-03-20T02:15:07.027Z,-7.30
2018-03-20T02:17:34.205Z,-7.30
2018-03-20T02:20:01.172Z,-7.30
2018-03-20T02:22:28.822Z,-7.40
2018-03-20T02:24:55.214Z,-7.40
2018-03-20T02:27:21.604Z,-7.40
2018-03-20T02:29:48.012Z,-7.40
2018-03-20T02:32:15.898Z,-7.50
2018-03-20T02:34:43.070Z,-7.50
2018-03-20T02:37:10.214Z,-7.50
2018-03-20T02:39:36.623Z,-7.50
2018-03-20T02:42:03.831Z,-7.50
2018-03-20T02:44:30.264Z,-7.50
2018-03-20T02:46:56.680Z,-7.50
2018-03-20T02:49:24.576Z,-7.50
2018-03-20T02:51:50.983Z,-7.60
2018-03-20T02:54:17.517Z,-7.60
2018-03-20T02:56:44.696Z,-7.50
2018-03-20T02:59:11.130Z,-7.60
2018-03-20T03:01:38.309Z,-7.50
2018-03-20T03:04:05.452Z,-7.60
2018-03-20T03:06:31.876Z,-7.60
2018-03-20T03:08:58.401Z,-7.60
2018-03-20T03:11:24.802Z,-7.60
2018-03-20T03:13:51.204Z,-7.70
2018-03-20T03:16:18.343Z,-7.70
2018-03-20T03:18:44.765Z,-7.70
2018-03-20T03:21:11.234Z,-7.70
2018-03-20T03:23:37.646Z,-7.70
2018-03-20T03:26:04.802Z,-7.80
2018-03-20T03:28:31.230Z,-7.80
2018-03-20T03:30:57.743Z,-7.70
2018-03-20T03:33:24.662Z,-7.70
2018-03-20T03:35:51.232Z,-7.70
2018-03-20T03:38:19.113Z,-7.80
2018-03-20T03:40:46.309Z,-7.80
2018-03-20T03:43:13.469Z,-7.80
2018-03-20T03:45:39.889Z,-7.80
2018-03-20T03:48:07.913Z,-7.90
2018-03-20T03:50:34.317Z,-7.90
2018-03-20T03:53:00.724Z,-7.90
2018-03-20T03:55:27.877Z,-7.90
2018-03-20T03:57:54.285Z,-7.90
2018-03-20T04:00:20.713Z,-7.90
2018-03-20T04:02:47.127Z,-7.90
2018-03-20T04:05:13.648Z,-7.90
2018-03-20T04:07:40.100Z,-8.00
2018-03-20T04:10:07.286Z,-8.00
2018-03-20T04:12:33.714Z,-8.00
2018-03-20T04:15:00.987Z,-8.00
2018-03-20T04:17:27.390Z,-8.10
2018-03-20T04:19:53.835Z,-8.10
2018-03-20T04:22:20.239Z,-8.00
2018-03-20T04:24:48.172Z,-8.10
2018-03-20T04:27:14.577Z,-8.00
2018-03-20T04:29:40.975Z,-8.00
2018-03-20T04:32:07.412Z,-8.10
2018-03-20T04:34:34.560Z,-8.00
2018-03-20T04:37:00.979Z,-8.10
2018-03-20T04:39:27.405Z,-8.00
2018-03-20T04:41:54.543Z,-8.10
2018-03-20T04:44:20.914Z,-8.10
2018-03-20T04:46:47.389Z,-8.10
2018-03-20T04:49:14.533Z,-8.10
2018-03-20T04:51:40.959Z,-8.10
2018-03-20T04:54:07.400Z,-8.10
2018-03-20T04:56:33.804Z,-8.10
2018-03-20T04:59:00.228Z,-8.10
2018-03-20T05:01:26.637Z,-8.10
2018-03-20T05:03:53.818Z,-8.00
2018-03-20T05:06:20.983Z,-8.00
2018-03-20T05:08:47.399Z,-8.00
2018-03-20T05:11:18.201Z,-8.00
2018-03-20T05:13:44.645Z,-8.00
2018-03-20T05:16:11.920Z,-8.00
2018-03-20T05:18:39.962Z,-8.00
2018-03-20T05:21:10.296Z,-8.00
2018-03-20T05:23:39.585Z,-8.00
2018-03-20T05:26:06.059Z,-8.00
2018-03-20T05:28:32.598Z,-8.00
2018-03-20T05:30:59.051Z,-7.90
2018-03-20T05:33:25.533Z,-7.90
2018-03-20T05:35:52.020Z,-7.90
2018-03-20T05:38:18.541Z,-7.90
2018-03-20T05:40:45.018Z,-7.90
2018-03-20T05:43:12.182Z,-7.80
2018-03-20T05:45:38.660Z,-7.80
2018-03-20T05:48:11.071Z,-7.70
2018-03-20T05:50:53.295Z,-7.60
2018-03-20T05:53:20.502Z,-7.60
2018-03-20T05:55:47.027Z,-7.60
2018-03-20T05:58:14.173Z,-6.70
2018-03-20T06:00:40.568Z,-6.70
2018-03-20T06:03:06.968Z,-6.20
2018-03-20T06:05:34.052Z,-6.10
2018-03-20T06:08:00.487Z,-6.20
2018-03-20T06:10:26.942Z,-6.20
2018-03-20T06:12:53.385Z,-6.20
2018-03-20T06:15:19.782Z,-6.30
2018-03-20T06:17:46.207Z,-6.30
2018-03-20T06:20:12.695Z,-6.20
2018-03-20T06:22:39.129Z,-6.20
2018-03-20T06:25:05.596Z,-6.10
2018-03-20T06:27:32.906Z,-5.90
2018-03-20T06:30:00.097Z,-5.70
2018-03-20T06:32:26.645Z,-5.70
2018-03-20T06:34:53.151Z,-4.90
2018-03-20T06:37:19.577Z,-2.30
2018-03-20T06:39:46.018Z,0.80
2018-03-20T06:42:12.418Z,3.90
2018-03-20T06:44:38.836Z,6.60
2018-03-20T06:47:05.248Z,8.90
2018-03-20T06:49:31.644Z,10.90
2018-03-20T06:51:58.070Z,12.60
2018-03-20T06:54:25.263Z,15.40
2018-03-20T06:56:51.695Z,15.30
2018-03-20T06:59:18.109Z,16.50
2018-03-20T07:01:44.641Z,17.30
2018-03-20T07:04:11.030Z,17.90
2018-03-20T07:06:37.456Z,18.30
2018-03-20T07:09:04.091Z,18.80
2018-03-20T07:11:30.650Z,19.20
2018-03-20T07:13:57.053Z,19.50
2018-03-20T07:16:23.481Z,19.60
2018-03-20T07:18:50.020Z,19.60
2018-03-20T07:21:17.196Z,20.20
2018-03-20T07:23:43.747Z,20.10
2018-03-20T07:26:11.021Z,21.00
2018-03-20T07:28:37.440Z,20.90
2018-03-20T07:31:04.580Z,21.80
2018-03-20T07:33:31.106Z,21.70
2018-03-20T07:35:58.277Z,22.00
2018-03-20T07:38:25.432Z,22.20
2018-03-20T07:40:51.863Z,22.20
2018-03-20T07:43:18.291Z,22.40
2018-03-20T07:45:44.682Z,22.50
2018-03-20T07:48:11.105Z,22.40
2018-03-20T07:50:38.116Z,22.70
2018-03-20T07:53:05.252Z,24.20
2018-03-20T07:55:31.695Z,24.20
2018-03-20T07:57:58.167Z,24.60
2018-03-20T08:00:24.584Z,25.30
2018-03-20T08:02:51.724Z,26.10
2018-03-20T08:05:18.195Z,26.10
2018-03-20T08:07:45.483Z,25.20
2018-03-20T08:10:12.654Z,23.90
2018-03-20T08:12:39.846Z,21.30
2018-03-20T08:15:06.265Z,21.20
2018-03-20T08:17:32.739Z,18.60
2018-03-20T08:20:00.526Z,15.40
2018-03-20T08:22:26.951Z,15.30
2018-03-20T08:24:53.387Z,16.10
2018-03-20T08:27:20.415Z,17.30
2018-03-20T08:29:46.858Z,17.30
2018-03-20T08:32:13.298Z,16.70
2018-03-20T08:34:40.441Z,14.30
2018-03-20T08:37:06.840Z,14.20
2018-03-20T08:39:33.994Z,13.00
2018-03-20T08:42:01.147Z,13.50
2018-03-20T08:44:27.557Z,13.50
2018-03-20T08:46:53.953Z,14.70
2018-03-20T08:49:20.455Z,15.50
2018-03-20T08:51:46.916Z,16.40
2018-03-20T08:54:13.354Z,16.80
2018-03-20T08:56:40.567Z,15.00
2018-03-20T08:59:07.098Z,15.00
2018-03-20T09:01:34.285Z,12.70
2018-03-20T09:04:00.737Z,12.60
2018-03-20T09:06:27.874Z,10.80
2018-03-20T09:08:56.161Z,10.20
2018-03-20T09:11:22.652Z,10.20
2018-03-20T09:13:49.797Z,9.10
2018-03-20T09:16:16.270Z,9.10
2018-03-20T09:18:43.464Z,7.80
2018-03-20T09:21:09.862Z,7.80
2018-03-20T09:23:36.320Z,7.40
2018-03-20T09:26:02.825Z,7.10
2018-03-20T09:28:30.007Z,6.50
2018-03-20T09:30:56.399Z,6.50
2018-03-20T09:33:22.869Z,6.20
2018-03-20T09:35:49.464Z,6.20
2018-03-20T09:38:16.576Z,6.20
2018-03-20T09:40:43.004Z,6.10
2018-03-20T09:43:09.430Z,6.20
2018-03-20T09:45:36.578Z,6.50
2018-03-20T09:48:03.015Z,6.50
2018-03-20T09:50:29.439Z,6.60
2018-03-20T09:52:56.191Z,6.70
2018-03-20T09:55:23.349Z,6.80
2018-03-20T09:57:50.530Z,6.90
2018-03-20T10:00:17.683Z,7.00
2018-03-20T10:02:44.864Z,7.10
2018-03-20T10:05:11.293Z,7.10
2018-03-20T10:07:37.745Z,7.10
2018-03-20T10:10:04.152Z,7.00
2018-03-20T10:12:31.318Z,7.10
2018-03-20T10:14:58.491Z,7.00
2018-03-20T10:17:24.960Z,7.00
2018-03-20T10:19:51.396Z,6.90
2018-03-20T10:22:18.549Z,6.70
2018-03-20T10:24:44.984Z,6.60
2018-03-20T10:27:11.388Z,6.50
2018-03-20T10:29:38.577Z,6.10
2018-03-20T10:32:05.063Z,6.10
2018-03-20T10:34:31.581Z,6.00
2018-03-20T10:36:58.051Z,5.80
2018-03-20T10:39:24.500Z,5.70
2018-03-20T10:41:50.912Z,5.50
2018-03-20T10:44:17.429Z,5.30
2018-03-20T10:46:43.902Z,5.20
2018-03-20T10:49:10.339Z,5.10
2018-03-20T10:51:36.741Z,5.00
2018-03-20T10:54:04.146Z,4.70
2018-03-20T10:56:31.419Z,4.60
2018-03-20T10:58:58.585Z,4.60
2018-03-20T11:01:31.291Z,4.60
2018-03-20T11:03:57.778Z,4.60
2018-03-20T11:06:24.214Z,4.70
2018-03-20T11:08:50.746Z,4.60
2018-03-20T11:11:18.452Z,4.40
2018-03-20T11:13:44.898Z,4.40
2018-03-20T11:16:12.171Z,4.30
2018-03-20T11:18:39.974Z,4.20
2018-03-20T11:21:06.455Z,4.20
2018-03-20T11:23:32.907Z,4.20
2018-03-20T11:25:59.320Z,4.20
2018-03-20T11:28:26.486Z,4.20
2018-03-20T11:30:53.672Z,4.20
2018-03-20T11:33:21.372Z,4.10
2018-03-20T11:35:48.040Z,4.10
2018-03-20T11:38:14.480Z,4.00
2018-03-20T11:40:40.896Z,4.00
2018-03-20T11:43:07.793Z,4.00
2018-03-20T11:45:34.257Z,3.90
2018-03-20T11:48:00.809Z,3.90
2018-03-20T11:50:28.388Z,3.90
2018-03-20T11:52:54.848Z,3.90
2018-03-20T11:55:22.018Z,4.00
2018-03-20T11:57:49.166Z,4.00
2018-03-20T12:00:15.633Z,4.00
2018-03-20T12:02:42.796Z,3.70
2018-03-20T12:05:09.249Z,3.70
2018-03-20T12:07:42.565Z,3.70
2018-03-20T12:10:09.702Z,3.60
2018-03-20T12:12:36.153Z,3.60
2018-03-20T12:15:02.674Z,3.50
2018-03-20T12:17:29.100Z,3.40
2018-03-20T12:19:55.538Z,3.30
2018-03-20T12:22:22.001Z,3.30
2018-03-20T12:24:48.558Z,3.20
2018-03-20T12:27:14.977Z,3.10
2018-03-20T12:29:41.465Z,2.90
2018-03-20T12:32:07.963Z,2.90
2018-03-20T12:34:35.760Z,2.70
2018-03-20T12:37:02.308Z,2.70
2018-03-20T12:39:29.452Z,2.80
2018-03-20T12:41:55.880Z,2.80
2018-03-20T12:44:22.327Z,2.90
2018-03-20T12:46:48.738Z,2.90
2018-03-20T12:49:15.189Z,2.90
2018-03-20T12:51:42.353Z,2.70
2018-03-20T12:54:08.973Z,2.70
2018-03-20T12:56:35.383Z,2.60
2018-03-20T12:59:02.765Z,2.60
2018-03-20T13:01:29.979Z,2.60
2018-03-20T13:03:56.412Z,2.60
2018-03-20T13:06:22.856Z,2.60
2018-03-20T13:08:49.282Z,2.60
2018-03-20T13:11:15.704Z,2.60
2018-03-20T13:13:42.105Z,2.50
2018-03-20T13:16:09.391Z,2.50
2018-03-20T13:18:36.553Z,2.40
2018-03-20T13:21:03.952Z,2.40
2018-03-20T13:23:30.890Z,2.30
2018-03-20T13:25:58.061Z,2.30
2018-03-20T13:28:24.637Z,2.30
2018-03-20T13:30:51.807Z,2.30
2018-03-20T13:33:18.976Z,2.30
2018-03-20T13:35:46.123Z,2.30
2018-03-20T13:38:12.580Z,2.30
2018-03-20T13:40:39.100Z,2.40
2018-03-20T13:43:05.756Z,2.50
2018-03-20T13:45:32.494Z,2.50
2018-03-20T13:47:59.664Z,2.60
2018-03-20T13:50:26.867Z,2.70
2018-03-20T13:52:53.278Z,2.70
2018-03-20T13:55:20.509Z,2.90
2018-03-20T13:57:46.978Z,2.90
2018-03-20T14:00:13.467Z,2.80
2018-03-20T14:02:40.651Z,2.60
2018-03-20T14:05:07.926Z,2.60
2018-03-20T14:07:35.111Z,2.60
2018-03-20T14:10:01.657Z,2.60
2018-03-20T14:12:28.624Z,2.60
2018-03-20T14:14:55.091Z,2.60
2018-03-20T14:17:21.743Z,2.40
2018-03-20T14:19:48.898Z,2.30
2018-03-20T14:22:16.187Z,2.20
2018-03-20T14:24:43.353Z,2.10
2018-03-20T14:27:10.517Z,2.10
2018-03-20T14:29:37.686Z,2.00
2018-03-20T14:32:05.054Z,1.90
2018-03-20T14:34:31.649Z,1.90
2018-03-20T14:36:58.103Z,1.90
2018-03-20T14:39:24.862Z,1.80
2018-03-20T14:41:51.296Z,1.70
2018-03-20T14:44:18.526Z,1.60
2018-03-20T14:46:44.933Z,1.60
2018-03-20T14:49:12.116Z,1.40
2018-03-20T14:51:39.314Z,1.30
2018-03-20T14:54:05.735Z,1.30
2018-03-20T14:56:32.235Z,1.30
2018-03-20T14:58:58.758Z,1.20
2018-03-20T15:01:25.204Z,1.10
2018-03-20T15:03:52.384Z,1.00
2018-03-20T15:06:20.207Z,1.00
2018-03-20T15:08:46.652Z,1.00
2018-03-20T15:11:14.909Z,1.00
2018-03-20T15:13:42.510Z,1.10
2018-03-20T15:16:10.640Z,1.00
2018-03-20T15:18:37.673Z,1.00
2018-03-20T15:21:04.178Z,1.00
2018-03-20T15:23:30.643Z,0.90
2018-03-20T15:25:57.120Z,0.80
2018-03-20T15:28:23.549Z,0.80
2018-03-20T15:30:50.012Z,0.60
2018-03-20T15:33:16.459Z,0.50
2018-03-20T15:35:42.936Z,0.40
2018-03-20T15:38:09.364Z,0.40
2018-03-20T15:40:35.816Z,0.40
2018-03-20T15:43:02.247Z,0.50
2018-03-20T15:45:28.655Z,0.50
2018-03-20T15:47:55.109Z,0.40
2018-03-20T15:50:22.314Z,0.40
2018-03-20T15:52:49.547Z,0.40
2018-03-20T15:55:15.987Z,0.40
2018-03-20T15:57:43.190Z,0.40
2018-03-20T16:00:09.778Z,0.40
2018-03-20T16:02:36.277Z,0.40
2018-03-20T16:05:02.772Z,0.40
2018-03-20T16:07:29.944Z,0.30
2018-03-20T16:09:57.097Z,0.30
2018-03-20T16:12:27.073Z,0.30
2018-03-20T16:14:54.215Z,0.20
2018-03-20T16:17:20.657Z,0.20
2018-03-20T16:19:47.083Z,0.10
2018-03-20T16:22:13.509Z,0.10
2018-03-20T16:24:40.934Z,0.10
2018-03-20T16:27:07.339Z,0.00
2018-03-20T16:29:34.585Z,-0.10
2018-03-20T16:32:01.046Z,-0.10
2018-03-20T16:34:28.211Z,-0.10
2018-03-20T16:36:54.704Z,-0.10
2018-03-20T16:39:21.853Z,-0.10
2018-03-20T16:41:49.022Z,-0.20
2018-03-20T16:44:15.456Z,-0.20
2018-03-20T16:46:41.837Z,-0.20
2018-03-20T16:49:08.237Z,-0.20
2018-03-20T16:51:34.637Z,-0.20
2018-03-20T16:54:01.077Z,-0.30
2018-03-20T16:56:27.644Z,-0.40
2018-03-20T16:58:54.853Z,-0.40
2018-03-20T17:01:22.030Z,-0.50
2018-03-20T17:03:49.200Z,-0.50
2018-03-20T17:06:16.381Z,-0.60
2018-03-20T17:08:42.841Z,-0.60
2018-03-20T17:11:09.295Z,-0.60
2018-03-20T17:13:35.707Z,-0.70
2018-03-20T17:16:02.179Z,-0.70
2018-03-20T17:18:29.386Z,-0.70
2018-03-20T17:20:55.869Z,-0.70
2018-03-20T17:23:22.617Z,-0.70
2018-03-20T17:25:49.452Z,-0.70
2018-03-20T17:28:16.727Z,-0.80
2018-03-20T17:30:44.041Z,-0.80
2018-03-20T17:33:10.608Z,-0.90
2018-03-20T17:35:37.101Z,-0.80
2018-03-20T17:38:04.393Z,-0.90
2018-03-20T17:40:31.576Z,-0.90
2018-03-20T17:42:58.532Z,-0.90
2018-03-20T17:45:25.013Z,-0.90
2018-03-20T17:47:51.992Z,-0.90
2018-03-20T17:50:18.397Z,-0.90
2018-03-20T17:52:44.805Z,-0.90
2018-03-20T17:55:11.267Z,-0.90
2018-03-20T17:57:38.418Z,-0.90
2018-03-20T18:00:06.794Z,-0.90
2018-03-20T18:02:34.891Z,-0.80
2018-03-20T18:05:02.464Z,-0.90
2018-03-20T18:07:28.866Z,-0.80
2018-03-20T18:09:55.485Z,-0.80
2018-03-20T18:12:24.442Z,-0.80
2018-03-20T18:14:51.157Z,-0.80
2018-03-20T18:17:18.739Z,-0.80
2018-03-20T18:19:45.399Z,-0.80
2018-03-20T18:22:13.534Z,-0.80
2018-03-20T18:24:39.981Z,-0.80
2018-03-20T18:27:06.445Z,-0.80
2018-03-20T18:29:32.892Z,-0.80
2018-03-20T18:31:59.350Z,-0.80
2018-03-20T18:34:25.792Z,-0.80
2018-03-20T18:36:52.234Z,-0.80
2018-03-20T18:39:19.412Z,-0.70
2018-03-20T18:41:46.071Z,-0.70
2018-03-20T18:44:13.175Z,-0.70
2018-03-20T18:46:40.258Z,-0.70
2018-03-20T18:49:07.590Z,-0.70
2018-03-20T18:51:34.445Z,-0.70
2018-03-20T18:54:01.731Z,-0.60
2018-03-20T18:56:28.177Z,-0.60
2018-03-20T18:58:55.555Z,-0.60
2018-03-20T19:01:21.978Z,-0.60
2018-03-20T19:03:48.791Z,-0.50
2018-03-20T19:06:15.432Z,-0.50
2018-03-20T19:08:42.707Z,-0.50
2018-03-20T19:11:10.647Z,-0.50
2018-03-20T19:13:37.157Z,-0.50
2018-03-20T19:16:03.710Z,-0.40
2018-03-20T19:18:30.380Z,-0.40
2018-03-20T19:21:01.401Z,-0.40
2018-03-20T19:23:28.651Z,-0.40
2018-03-20T19:25:55.732Z,-0.40
2018-03-20T19:28:22.144Z,-0.40
2018-03-20T19:30:48.628Z,-0.40
2018-03-20T19:33:15.044Z,-0.40
2018-03-20T19:35:42.316Z,-0.40
2018-03-20T19:38:08.796Z,-0.40
2018-03-20T19:40:35.263Z,-0.50
2018-03-20T19:43:01.723Z,-0.50
2018-03-20T19:45:28.213Z,-0.50
2018-03-20T19:47:54.711Z,-0.50
2018-03-20T19:50:21.265Z,-0.50
2018-03-20T19:52:47.852Z,-0.50
2018-03-20T19:55:14.329Z,-0.50
2018-03-20T19:57:40.790Z,-0.50
2018-03-20T20:00:08.122Z,-0.50
2018-03-20T20:02:34.531Z,-0.50
2018-03-20T20:05:00.977Z,-0.50
2018-03-20T20:07:27.421Z,-0.50
2018-03-20T20:09:53.877Z,-0.50
2018-03-20T20:12:20.595Z,-0.50
2018-03-20T20:14:47.867Z,-0.50
2018-03-20T20:17:15.560Z,-0.50
2018-03-20T20:19:42.042Z,-0.50
2018-03-20T20:22:08.566Z,-0.40
2018-03-20T20:24:35.029Z,-0.40
2018-03-20T20:27:01.523Z,-0.50
2018-03-20T20:29:27.985Z,-0.50
2018-03-20T20:31:55.720Z,-0.50
2018-03-20T20:34:22.277Z,-0.50
2018-03-20T20:36:49.459Z,-0.50
2018-03-20T20:39:15.891Z,-0.50
2018-03-20T20:41:43.098Z,-0.50
2018-03-20T20:44:09.513Z,-0.50
2018-03-20T20:46:35.991Z,-0.50
2018-03-20T20:49:02.525Z,-0.50
2018-03-20T20:51:28.950Z,-0.50
2018-03-20T20:53:55.407Z,-0.50
2018-03-20T20:56:22.651Z,-0.50
2018-03-20T20:58:49.100Z,-0.50
2018-03-20T21:01:15.599Z,-0.50
2018-03-20T21:03:43.000Z,-0.50
2018-03-20T21:06:09.491Z,-0.50
2018-03-20T21:08:35.943Z,-0.50
2018-03-20T21:11:02.405Z,-0.50
2018-03-20T21:13:28.955Z,-0.50
2018-03-20T21:15:55.614Z,-0.50
2018-03-20T21:18:22.276Z,-0.50
2018-03-20T21:20:49.450Z,-0.60
2018-03-20T21:23:16.764Z,-0.60
2018-03-20T21:25:43.214Z,-0.60
2018-03-20T21:28:09.645Z,-0.60
2018-03-20T21:30:36.132Z,-0.60
2018-03-20T21:33:03.064Z,-0.60
2018-03-20T21:35:29.586Z,-0.70
2018-03-20T21:37:56.083Z,-0.60
2018-03-20T21:40:22.733Z,-0.70
2018-03-20T21:42:50.590Z,-0.70
2018-03-20T21:45:17.004Z,-0.70
2018-03-20T21:47:43.776Z,-0.70
2018-03-20T21:50:11.728Z,-0.70
2018-03-20T21:52:38.697Z,-0.70
2018-03-20T21:55:06.074Z,-0.80
2018-03-20T21:57:32.630Z,-0.80
2018-03-20T21:59:59.856Z,-0.80
2018-03-20T22:02:26.363Z,-0.80
2018-03-20T22:04:53.636Z,-0.80
2018-03-20T22:07:20.915Z,-0.80
2018-03-20T22:09:47.352Z,-0.80
2018-03-20T22:12:14.574Z,-0.80
2018-03-20T22:14:40.971Z,-0.80
2018-03-20T22:17:07.413Z,-0.80
2018-03-20T22:19:33.895Z,-0.80
2018-03-20T22:22:01.067Z,-0.80
2018-03-20T22:24:28.296Z,-0.90
2018-03-20T22:26:56.156Z,-1.00
2018-03-20T22:29:22.594Z,-1.00
2018-03-20T22:31:49.806Z,-1.10
2018-03-20T22:34:16.246Z,-1.10
2018-03-20T22:36:42.737Z,-1.10
2018-03-20T22:39:09.139Z,-1.10
2018-03-20T22:41:36.350Z,-1.20
2018-03-20T22:44:02.853Z,-1.20
2018-03-20T22:46:30.042Z,-1.20
2018-03-20T22:48:56.527Z,-1.20
2018-03-20T22:51:22.967Z,-1.20
2018-03-20T22:53:49.513Z,-1.20
2018-03-20T22:56:16.068Z,-1.20
2018-03-20T22:58:43.253Z,-1.20
2018-03-20T23:01:09.763Z,-1.20
2018-03-20T23:03:36.259Z,-1.20
2018-03-20T23:06:03.424Z,-1.20
2018-03-20T23:08:30.611Z,-1.20
2018-03-20T23:10:57.057Z,-1.20
2018-03-20T23:13:24.234Z,-1.20
2018-03-20T23:15:50.686Z,-1.20
2018-03-20T23:18:17.166Z,-1.20
2018-03-20T23:20:43.703Z,-1.20
2018-03-20T23:23:10.923Z,-1.20
2018-03-20T23:25:37.413Z,-1.20
2018-03-20T23:28:04.614Z,-1.20
2018-03-20T23:30:31.149Z,-1.30
2018-03-20T23:32:58.380Z,-1.20
2018-03-20T23:35:24.835Z,-1.30
2018-03-20T23:37:51.267Z,-1.30
2018-03-20T23:40:17.679Z,-1.30
2018-03-20T23:42:45.635Z,-1.40
2018-03-20T23:45:12.043Z,-1.40
2018-03-20T23:47:39.704Z,-1.40
2018-03-20T23:50:06.296Z,-1.40
2018-03-20T23:52:32.850Z,-1.30
2018-03-20T23:54:59.296Z,-1.30
2018-03-20T23:57:26.456Z,-1.40
2018-03-20T23:59:52.876Z,-1.40
